createdAt,value
2023-02-01T00:02:21.978Z,5.72
2023-02-01T00:07:24.177Z,7.55
2023-02-01T00:12:26.343Z,6.18
2023-02-01T00:17:28.108Z,3.83
2023-02-01T00:22:30.284Z,5.03
2023-02-01T00:27:32.446Z,5.03
2023-02-01T00:32:34.556Z,7.30
2023-02-01T00:37:36.714Z,9.88
2023-02-01T00:42:39.225Z,4.13
2023-02-01T00:47:41.354Z,5.72
2023-02-01T00:52:43.110Z,3.08
2023-02-01T00:57:44.957Z,4.35
2023-02-01T01:02:46.776Z,3.03
2023-02-01T01:07:48.524Z,4.55
2023-02-01T01:12:50.222Z,5.35
2023-02-01T01:17:51.961Z,3.35
2023-02-01T01:22:53.756Z,3.00
2023-02-01T01:27:55.998Z,3.92
2023-02-01T01:32:57.693Z,4.78
2023-02-01T01:38:01.050Z,2.20
2023-02-01T01:43:03.254Z,2.38
2023-02-01T01:48:06.708Z,3.80
2023-02-01T01:53:12.621Z,2.83
2023-02-01T01:58:20.497Z,4.47
2023-02-01T02:03:28.121Z,3.00
2023-02-01T02:08:30.625Z,3.17
2023-02-01T02:13:39.453Z,2.80
2023-02-01T02:19:10.340Z,2.10
2023-02-01T02:24:35.465Z,2.30
2023-02-01T02:29:40.754Z,1.90
2023-02-01T02:34:56.325Z,1.35
2023-02-01T02:40:34.421Z,2.38
2023-02-01T02:46:01.465Z,1.17
2023-02-01T02:51:29.519Z,1.35
2023-02-01T02:56:50.156Z,1.52
2023-02-01T03:02:11.853Z,3.65
2023-02-01T03:07:42.888Z,2.05
2023-02-01T03:12:57.463Z,3.15
2023-02-01T03:18:02.730Z,1.63
2023-02-01T03:23:07.589Z,4.68
2023-02-01T03:28:11.043Z,2.10
2023-02-01T03:33:23.573Z,2.17
2023-02-01T03:38:58.392Z,4.00
2023-02-01T03:44:18.381Z,1.83
2023-02-01T03:49:35.950Z,1.45
2023-02-01T03:54:38.643Z,2.63
2023-02-01T03:59:45.363Z,1.20
2023-02-01T04:04:47.191Z,2.63
2023-02-01T04:09:48.935Z,2.33
2023-02-01T04:14:51.092Z,1.52
2023-02-01T04:19:55.264Z,2.78
2023-02-01T04:24:57.346Z,1.88
2023-02-01T04:29:59.054Z,2.40
2023-02-01T04:35:00.789Z,5.40
2023-02-01T04:40:04.671Z,1.45
2023-02-01T04:45:07.044Z,1.48
2023-02-01T04:50:11.345Z,2.85
2023-02-01T04:55:14.416Z,2.15
2023-02-01T05:00:16.945Z,2.10
2023-02-01T05:05:18.901Z,8.10
2023-02-01T05:10:21.705Z,6.03
2023-02-01T05:15:24.008Z,2.92
2023-02-01T05:20:26.572Z,2.95
2023-02-01T05:25:28.256Z,4.72
2023-02-01T05:30:30.514Z,12.30
2023-02-01T05:35:32.377Z,3.20
2023-02-01T05:40:34.137Z,10.02
2023-02-01T05:45:36.288Z,3.83
2023-02-01T05:50:38.070Z,1.83
2023-02-01T05:55:40.869Z,3.40
2023-02-01T06:00:42.602Z,3.92
2023-02-01T06:05:48.359Z,3.47
2023-02-01T06:10:50.132Z,5.97
2023-02-01T06:15:52.396Z,2.70
2023-02-01T06:20:58.612Z,3.70
2023-02-01T06:26:04.068Z,4.93
2023-02-01T06:31:07.864Z,4.05
2023-02-01T06:36:13.421Z,1.98
2023-02-01T06:41:15.787Z,3.13
2023-02-01T06:46:17.507Z,4.40
2023-02-01T06:51:25.172Z,4.00
2023-02-01T06:56:27.485Z,4.20
2023-02-01T07:01:29.255Z,5.50
2023-02-01T07:06:31.359Z,5.50
2023-02-01T07:11:33.679Z,5.93
2023-02-01T07:16:35.463Z,5.35
2023-02-01T07:21:37.732Z,6.00
2023-02-01T07:26:39.633Z,9.18
2023-02-01T07:31:41.537Z,12.77
2023-02-01T07:36:43.588Z,8.77
2023-02-01T07:41:46.495Z,5.75
2023-02-01T07:46:48.680Z,9.23
2023-02-01T07:51:50.912Z,9.50
2023-02-01T07:56:52.720Z,9.98
2023-02-01T08:01:54.586Z,9.55
2023-02-01T08:06:56.356Z,7.28
2023-02-01T08:11:58.116Z,10.02
2023-02-01T08:17:00.015Z,11.50
2023-02-01T08:22:07.212Z,13.82
2023-02-01T08:27:09.514Z,11.73
2023-02-01T08:32:11.773Z,12.20
2023-02-01T08:37:13.873Z,9.95
2023-02-01T08:42:34.750Z,14.20
2023-02-01T08:47:36.816Z,10.32
2023-02-01T08:52:38.565Z,14.05
2023-02-01T08:57:40.967Z,14.00
2023-02-01T09:02:43.563Z,12.00
2023-02-01T09:07:45.450Z,14.20
2023-02-01T09:12:47.291Z,12.15
2023-02-01T09:17:49.951Z,10.05
2023-02-01T09:22:53.067Z,11.80
2023-02-01T09:27:55.233Z,10.77
2023-02-01T09:32:57.031Z,11.48
2023-02-01T09:37:58.874Z,9.52
2023-02-01T09:43:23.379Z,12.02
2023-02-01T09:48:38.613Z,10.48
2023-02-01T09:53:44.223Z,11.05
2023-02-01T09:58:58.225Z,12.90
2023-02-01T10:04:08.616Z,13.85
2023-02-01T10:09:36.281Z,14.23
2023-02-01T10:14:55.548Z,14.15
2023-02-01T10:20:09.349Z,8.18
2023-02-01T10:25:25.156Z,18.90
2023-02-01T10:30:38.878Z,13.10
2023-02-01T10:35:42.606Z,12.00
2023-02-01T10:40:44.646Z,20.35
2023-02-01T10:45:46.479Z,7.47
2023-02-01T10:50:58.574Z,20.17
2023-02-01T10:56:08.199Z,14.60
2023-02-01T11:01:19.074Z,17.30
2023-02-01T11:06:31.731Z,15.30
2023-02-01T11:11:52.943Z,16.95
2023-02-01T11:17:29.395Z,13.80
2023-02-01T11:22:31.348Z,13.05
2023-02-01T11:27:36.368Z,13.95
2023-02-01T11:32:40.661Z,14.45
2023-02-01T11:37:44.526Z,10.55
2023-02-01T11:42:55.874Z,12.95
2023-02-01T11:47:59.428Z,12.43
2023-02-01T11:53:22.289Z,14.32
2023-02-01T11:58:59.302Z,12.98
2023-02-01T12:04:13.994Z,16.13
2023-02-01T12:09:21.922Z,9.90
2023-02-01T12:14:27.087Z,10.07
2023-02-01T12:20:02.421Z,20.02
2023-02-01T12:25:37.309Z,17.90
2023-02-01T12:31:07.320Z,12.27
2023-02-01T12:36:40.614Z,22.02
2023-02-01T12:41:57.774Z,11.80
2023-02-01T12:47:12.942Z,10.93
2023-02-01T12:52:36.474Z,10.85
2023-02-01T12:57:43.817Z,17.67
2023-02-01T13:02:53.473Z,12.38
2023-02-01T13:08:11.123Z,8.35
2023-02-01T13:13:18.498Z,12.82
2023-02-01T13:18:22.899Z,7.22
2023-02-01T13:23:30.537Z,15.45
2023-02-01T13:28:35.411Z,15.93
2023-02-01T13:34:12.246Z,12.45
2023-02-01T13:39:46.056Z,8.68
2023-02-01T13:44:52.944Z,12.00
2023-02-01T13:49:58.240Z,14.27
2023-02-01T13:55:22.406Z,11.43
2023-02-01T14:00:27.450Z,19.50
2023-02-01T14:05:32.037Z,13.88
2023-02-01T14:10:46.342Z,9.20
2023-02-01T14:16:15.397Z,18.08
2023-02-01T14:21:27.024Z,15.73
2023-02-01T14:26:45.361Z,14.20
2023-02-01T14:32:07.499Z,15.00
2023-02-01T14:37:11.881Z,10.98
2023-02-01T14:42:46.561Z,18.30
2023-02-01T14:47:55.427Z,14.10
2023-02-01T14:53:15.029Z,14.13
2023-02-01T14:58:26.561Z,14.73
2023-02-01T15:03:38.337Z,9.52
2023-02-01T15:08:40.911Z,20.35
2023-02-01T15:13:52.975Z,17.52
2023-02-01T15:19:11.040Z,13.80
2023-02-01T15:24:15.533Z,15.25
2023-02-01T15:29:18.090Z,15.25
2023-02-01T15:34:21.133Z,23.08
2023-02-01T15:39:26.826Z,19.85
2023-02-01T15:44:47.144Z,19.92
2023-02-01T15:49:52.967Z,15.98
2023-02-01T15:55:04.153Z,15.38
2023-02-01T16:00:23.970Z,19.02
2023-02-01T16:05:34.552Z,12.48
2023-02-01T16:10:42.306Z,10.70
2023-02-01T16:15:44.915Z,9.05
2023-02-01T16:20:49.777Z,17.08
2023-02-01T16:25:52.351Z,18.85
2023-02-01T16:30:54.780Z,15.52
2023-02-01T16:36:01.040Z,8.18
2023-02-01T16:41:03.930Z,20.92
2023-02-01T16:46:06.657Z,17.25
2023-02-01T16:51:14.295Z,18.92
2023-02-01T16:56:20.106Z,21.40
2023-02-01T17:01:22.208Z,16.80
2023-02-01T17:06:26.363Z,18.23
2023-02-01T17:11:30.882Z,16.40
2023-02-01T17:16:33.300Z,12.13
2023-02-01T17:21:49.795Z,18.58
2023-02-01T17:26:52.365Z,12.80
2023-02-01T17:31:56.014Z,15.95
2023-02-01T17:36:57.808Z,12.18
2023-02-01T17:42:01.279Z,17.08
2023-02-01T17:47:03.460Z,11.75
2023-02-01T17:52:06.918Z,13.68
2023-02-01T17:57:17.589Z,15.02
2023-02-01T18:02:22.317Z,17.00
2023-02-01T18:07:25.487Z,10.02
2023-02-01T18:12:31.540Z,12.90
2023-02-01T18:17:33.783Z,12.18
2023-02-01T18:22:35.965Z,16.38
2023-02-01T18:27:39.181Z,13.00
2023-02-01T18:33:28.233Z,9.30
2023-02-01T18:38:39.531Z,8.93
2023-02-01T18:43:50.399Z,7.68
2023-02-01T18:49:17.792Z,6.80
2023-02-01T18:54:25.895Z,16.30
2023-02-01T18:59:32.835Z,14.43
2023-02-01T19:04:34.951Z,9.93
2023-02-01T19:15:56.052Z,11.13
2023-02-01T19:26:46.296Z,15.65
2023-02-01T19:32:04.944Z,14.00
2023-02-01T19:37:08.685Z,18.50
2023-02-01T19:48:15.013Z,14.10
2023-02-01T19:53:22.922Z,15.82
2023-02-01T19:58:28.598Z,7.40
2023-02-01T20:15:32.076Z,9.10
2023-02-01T20:20:34.366Z,17.67
2023-02-01T20:25:41.746Z,16.60
2023-02-01T20:30:55.243Z,17.98
2023-02-01T20:35:57.374Z,11.40
2023-02-01T20:41:24.079Z,12.43
2023-02-01T20:46:26.471Z,17.10
2023-02-01T20:51:28.907Z,12.43
2023-02-01T20:56:30.735Z,9.48
2023-02-01T21:01:33.106Z,10.63
2023-02-01T21:06:37.407Z,18.63
2023-02-01T21:11:39.711Z,12.82
2023-02-01T21:16:43.948Z,11.15
2023-02-01T21:21:46.570Z,16.95
2023-02-01T21:26:48.986Z,17.33
2023-02-01T21:31:51.592Z,14.38
2023-02-01T21:36:55.578Z,14.85
2023-02-01T21:42:18.198Z,13.27
2023-02-01T21:47:28.378Z,10.45
2023-02-01T21:52:30.845Z,16.33
2023-02-01T21:57:34.609Z,28.17
2023-02-01T22:02:36.896Z,9.60
2023-02-01T22:07:50.864Z,14.50
2023-02-01T22:12:58.062Z,14.65
2023-02-01T22:18:20.169Z,13.25
2023-02-01T22:23:27.705Z,11.18
2023-02-01T22:28:31.986Z,19.70
2023-02-01T22:33:37.190Z,9.38
2023-02-01T22:38:42.204Z,8.73
2023-02-01T22:43:44.551Z,35.45
2023-02-01T22:48:47.405Z,13.98
2023-02-01T22:53:57.143Z,11.25
2023-02-01T22:59:01.758Z,13.10
2023-02-01T23:04:07.842Z,10.48
2023-02-01T23:09:18.477Z,19.40
2023-02-01T23:14:20.841Z,7.43
2023-02-01T23:19:23.099Z,9.13
2023-02-01T23:24:25.300Z,13.43
2023-02-01T23:29:28.374Z,9.63
2023-02-01T23:34:30.687Z,12.23
2023-02-01T23:39:33.394Z,13.55
2023-02-01T23:44:35.894Z,17.25
2023-02-01T23:49:42.113Z,14.52
2023-02-01T23:54:44.480Z,12.20
2023-02-01T23:59:46.399Z,10.90
